Time;durP1;ratioP1;P1;durP2;ratioP2;P2;SDS_P1;SDS_P2;PMS_P1;PMS_P2;Temp;Humidity;BMP_temperature;BMP_pressure;BME280_temperature;BME280_humidity;BME280_pressure;Samples;Min_cycle;Max_cycle;Signal;HPM_P1;HPM_P2
2021/11/27 00:00:59;;;;;;;20.95;12.10;;;3.80;99.90;;;;;;5033004;28;20029;-44
2021/11/27 00:03:26;;;;;;;14.98;9.13;;;3.80;99.90;;;;;;5033082;28;20084;-48
2021/11/27 00:05:53;;;;;;;18.95;10.13;;;3.80;99.90;;;;;;5033014;28;20030;-44
2021/11/27 00:08:20;;;;;;;16.63;9.43;;;3.90;99.90;;;;;;5032510;28;20032;-52
2021/11/27 00:10:49;;;;;;;16.13;9.48;;;3.90;99.90;;;;;;5032144;28;20029;-49
2021/11/27 00:13:15;;;;;;;15.02;9.27;;;3.90;99.90;;;;;;5031584;28;20022;-46
2021/11/27 00:15:43;;;;;;;15.80;9.48;;;3.90;99.90;;;;;;5033630;28;20479;-43
2021/11/27 00:18:10;;;;;;;17.38;9.70;;;3.80;99.90;;;;;;5032518;28;20025;-46
2021/11/27 00:20:44;;;;;;;14.38;8.88;;;3.80;99.90;;;;;;5032424;28;20040;-48
2021/11/27 00:23:09;;;;;;;13.38;8.25;;;3.80;99.90;;;;;;5031454;28;20029;-46
2021/11/27 00:25:35;;;;;;;10.77;7.55;;;3.80;99.90;;;;;;5032680;28;20017;-45
2021/11/27 00:28:01;;;;;;;17.20;9.70;;;3.80;99.90;;;;;;5031285;28;20024;-45
2021/11/27 00:30:29;;;;;;;17.25;8.70;;;3.80;99.90;;;;;;5032216;28;20491;-48
2021/11/27 00:32:55;;;;;;;12.38;8.05;;;3.80;99.90;;;;;;5032189;28;20096;-47
2021/11/27 00:35:21;;;;;;;11.82;8.13;;;3.90;99.90;;;;;;5032462;28;20567;-50
2021/11/27 00:37:48;;;;;;;15.98;8.60;;;3.90;99.90;;;;;;5031250;28;20073;-51
2021/11/27 00:40:14;;;;;;;10.63;7.95;;;3.90;99.90;;;;;;5032035;28;20026;-48
2021/11/27 00:42:40;;;;;;;12.07;8.32;;;3.90;99.90;;;;;;5032377;28;20052;-49
2021/11/27 00:45:11;;;;;;;11.68;7.88;;;3.90;99.90;;;;;;5032285;28;20022;-48
2021/11/27 00:47:41;;;;;;;10.52;7.20;;;3.90;99.90;;;;;;5032189;28;20029;-45
2021/11/27 00:50:09;;;;;;;10.50;7.68;;;3.90;99.90;;;;;;5032178;28;20495;-51
2021/11/27 00:52:34;;;;;;;13.73;8.32;;;3.90;99.90;;;;;;5032277;28;20029;-47
2021/11/27 00:55:00;;;;;;;14.48;8.70;;;3.90;99.90;;;;;;5032028;28;20494;-49
2021/11/27 00:57:26;;;;;;;12.80;8.07;;;4.00;99.90;;;;;;5032134;28;20029;-45
2021/11/27 00:59:51;;;;;;;12.00;7.50;;;4.00;99.90;;;;;;5030464;28;20443;-46
2021/11/27 01:02:17;;;;;;;12.02;8.50;;;3.90;99.90;;;;;;5032005;28;20022;-47
2021/11/27 01:04:43;;;;;;;13.75;7.97;;;3.90;99.90;;;;;;5032035;28;20387;-45
2021/11/27 01:07:09;;;;;;;11.20;7.25;;;4.00;99.90;;;;;;5032379;28;20029;-46
2021/11/27 01:09:36;;;;;;;12.80;7.43;;;4.00;99.90;;;;;;5031915;28;20135;-47
2021/11/27 01:12:03;;;;;;;10.93;6.72;;;4.00;99.90;;;;;;5032108;28;20032;-45
2021/11/27 01:14:30;;;;;;;10.68;6.57;;;4.00;99.90;;;;;;5031649;28;20375;-46
2021/11/27 01:17:00;;;;;;;13.43;6.95;;;4.00;99.90;;;;;;5032102;28;20022;-45
2021/11/27 01:19:26;;;;;;;9.98;6.97;;;4.00;99.90;;;;;;5031829;28;20021;-44
2021/11/27 01:21:57;;;;;;;11.57;6.85;;;4.00;99.90;;;;;;5031976;28;20395;-44
2021/11/27 01:24:25;;;;;;;10.88;6.80;;;4.00;99.90;;;;;;5031923;28;20499;-49
2021/11/27 01:26:53;;;;;;;9.52;6.00;;;3.90;99.90;;;;;;5033277;28;20390;-48
2021/11/27 01:29:20;;;;;;;10.65;6.30;;;4.00;99.90;;;;;;5031619;28;20013;-50
2021/11/27 01:31:46;;;;;;;9.80;6.30;;;4.00;99.90;;;;;;5031681;28;20394;-47
2021/11/27 01:34:11;;;;;;;8.27;5.63;;;4.00;99.90;;;;;;5031726;28;20042;-48
2021/11/27 01:36:38;;;;;;;8.38;5.65;;;4.00;99.90;;;;;;5031653;28;20450;-45
2021/11/27 01:39:05;;;;;;;7.45;5.72;;;4.00;99.90;;;;;;5031993;28;20053;-48
2021/11/27 01:41:31;;;;;;;6.35;5.05;;;4.00;99.90;;;;;;5031799;28;20059;-45
2021/11/27 01:43:56;;;;;;;6.35;5.32;;;4.00;99.90;;;;;;5031680;28;20029;-48
2021/11/27 01:46:22;;;;;;;5.68;5.03;;;4.00;99.90;;;;;;5035855;28;20022;-48
2021/11/27 01:48:47;;;;;;;11.50;5.85;;;4.00;99.90;;;;;;5035543;28;20025;-48
2021/11/27 01:51:23;;;;;;;8.95;6.13;;;4.00;99.90;;;;;;5035186;28;20032;-47
2021/11/27 01:53:54;;;;;;;6.47;5.47;;;4.00;99.90;;;;;;5035464;28;20518;-47
2021/11/27 01:56:27;;;;;;;5.75;5.07;;;4.00;99.90;;;;;;5035766;28;20037;-48
2021/11/27 01:58:53;;;;;;;8.68;4.97;;;4.00;99.90;;;;;;5035420;28;20482;-48
2021/11/27 02:01:25;;;;;;;6.45;4.80;;;4.00;99.90;;;;;;5034865;28;20095;-46
2021/11/27 02:03:51;;;;;;;7.95;4.95;;;4.10;99.90;;;;;;5035547;28;20025;-45
2021/11/27 02:06:20;;;;;;;6.13;5.10;;;4.00;99.90;;;;;;5035247;28;20083;-45
2021/11/27 02:08:49;;;;;;;4.97;4.38;;;4.00;99.90;;;;;;5035458;28;20021;-46
2021/11/27 02:11:18;;;;;;;6.32;4.10;;;4.00;99.90;;;;;;5035222;28;20104;-46
2021/11/27 02:13:44;;;;;;;7.55;4.32;;;4.00;99.90;;;;;;5035143;28;20025;-50
2021/11/27 02:16:10;;;;;;;4.65;3.78;;;4.10;99.90;;;;;;5035152;28;20458;-44
2021/11/27 02:18:35;;;;;;;10.23;3.95;;;4.10;99.90;;;;;;5035116;28;20099;-45
2021/11/27 02:21:06;;;;;;;5.95;4.10;;;4.10;99.90;;;;;;5035007;28;20085;-44
2021/11/27 02:23:32;;;;;;;6.47;3.78;;;4.00;99.90;;;;;;5033699;28;20021;-46
2021/11/27 02:26:04;;;;;;;4.80;3.70;;;4.00;99.90;;;;;;5034921;28;20293;-45
2021/11/27 02:28:32;;;;;;;3.50;3.20;;;4.00;99.90;;;;;;5033539;28;20033;-47
2021/11/27 02:30:57;;;;;;;5.95;3.58;;;4.00;99.90;;;;;;5034584;28;20120;-50
2021/11/27 02:33:23;;;;;;;4.60;3.00;;;4.00;99.90;;;;;;5033495;28;20497;-48
2021/11/27 02:35:49;;;;;;;3.17;2.88;;;4.00;99.90;;;;;;5034372;28;20052;-48
2021/11/27 02:38:15;;;;;;;3.80;3.03;;;4.00;99.90;;;;;;5033561;28;20072;-45
2021/11/27 02:40:42;;;;;;;3.13;2.92;;;4.00;99.90;;;;;;5034193;28;20029;-45
2021/11/27 02:43:08;;;;;;;4.53;2.80;;;4.00;99.90;;;;;;5034937;28;20053;-51
2021/11/27 02:45:33;;;;;;;4.28;3.38;;;4.00;99.90;;;;;;5033145;28;20166;-51
2021/11/27 02:47:59;;;;;;;5.55;3.05;;;4.00;99.90;;;;;;5033114;28;20048;-45
2021/11/27 02:50:25;;;;;;;3.85;3.45;;;4.00;99.90;;;;;;5034172;28;20036;-47
2021/11/27 02:52:51;;;;;;;4.43;3.15;;;4.10;99.90;;;;;;5034380;28;20499;-45
2021/11/27 02:55:17;;;;;;;6.43;3.28;;;4.10;99.90;;;;;;5034402;28;20536;-49
2021/11/27 02:57:43;;;;;;;2.60;2.40;;;4.10;99.90;;;;;;5032913;28;20030;-49
2021/11/27 03:00:15;;;;;;;3.00;2.70;;;4.00;99.90;;;;;;5032585;28;20026;-52
2021/11/27 03:02:40;;;;;;;5.63;3.47;;;4.10;99.90;;;;;;5034241;28;20017;-52
2021/11/27 03:05:06;;;;;;;4.32;3.03;;;4.10;99.90;;;;;;5034060;28;20051;-47
2021/11/27 03:07:32;;;;;;;3.42;3.13;;;4.10;99.90;;;;;;5033880;28;20022;-40
2021/11/27 03:09:59;;;;;;;3.90;2.80;;;4.10;99.90;;;;;;5033751;28;20030;-47
2021/11/27 03:12:26;;;;;;;3.90;3.20;;;4.20;99.90;;;;;;5034047;28;20052;-46
2021/11/27 03:14:51;;;;;;;3.35;3.05;;;4.20;99.90;;;;;;5032573;28;20029;-43
2021/11/27 03:17:17;;;;;;;3.47;3.17;;;4.10;99.90;;;;;;5033792;28;20025;-48
2021/11/27 03:19:44;;;;;;;4.05;3.00;;;4.10;99.90;;;;;;5033489;28;20029;-48
2021/11/27 03:22:12;;;;;;;4.78;3.28;;;4.10;99.90;;;;;;5033725;28;20022;-49
2021/11/27 03:24:39;;;;;;;4.43;3.15;;;4.00;99.90;;;;;;5033617;28;20020;-47
2021/11/27 03:27:05;;;;;;;6.80;2.92;;;4.00;99.90;;;;;;5033991;28;20395;-45
2021/11/27 03:29:32;;;;;;;3.20;2.92;;;4.00;99.90;;;;;;5033687;28;20021;-48
2021/11/27 03:32:07;;;;;;;4.05;2.42;;;4.10;99.90;;;;;;5032378;28;20026;-45
2021/11/27 03:34:32;;;;;;;3.03;2.83;;;4.00;99.90;;;;;;5031866;28;20025;-48
2021/11/27 03:36:58;;;;;;;4.13;3.03;;;4.00;99.90;;;;;;5033616;28;20018;-47
2021/11/27 03:39:23;;;;;;;4.43;2.97;;;4.00;99.90;;;;;;5033287;28;20022;-42
2021/11/27 03:41:49;;;;;;;2.72;2.47;;;4.00;99.90;;;;;;5033270;28;20032;-50
2021/11/27 03:44:15;;;;;;;5.88;2.83;;;4.00;99.90;;;;;;5032018;28;20028;-48
2021/11/27 03:46:41;;;;;;;3.47;3.00;;;4.10;99.90;;;;;;5033322;28;20364;-48
2021/11/27 03:49:07;;;;;;;2.97;2.70;;;4.10;99.90;;;;;;5033024;28;20028;-48
2021/11/27 03:51:32;;;;;;;2.75;2.50;;;4.10;99.90;;;;;;5033218;28;20025;-43
2021/11/27 03:53:58;;;;;;;2.85;2.63;;;4.10;99.90;;;;;;5031901;28;20041;-45
2021/11/27 03:56:27;;;;;;;3.10;2.45;;;4.20;99.90;;;;;;5033209;28;20029;-48
2021/11/27 03:58:54;;;;;;;2.85;2.65;;;4.20;99.90;;;;;;5032987;28;20063;-47
2021/11/27 04:01:21;;;;;;;3.70;2.55;;;4.10;99.90;;;;;;5031309;28;20034;-48
2021/11/27 04:03:49;;;;;;;5.30;2.95;;;4.10;99.90;;;;;;5032895;28;20036;-44
2021/11/27 04:06:16;;;;;;;2.67;2.47;;;4.10;99.90;;;;;;5033000;28;20018;-45
2021/11/27 04:08:42;;;;;;;3.80;2.80;;;4.20;99.90;;;;;;5032249;28;20423;-45
2021/11/27 04:11:07;;;;;;;3.80;2.45;;;4.20;99.90;;;;;;5032595;28;20033;-45
2021/11/27 04:13:33;;;;;;;3.08;2.78;;;4.20;99.90;;;;;;5032699;28;20049;-41
2021/11/27 04:15:59;;;;;;;3.78;2.63;;;4.20;99.90;;;;;;5031330;28;20021;-45
2021/11/27 04:18:25;;;;;;;3.20;2.50;;;4.20;99.90;;;;;;5032697;28;20034;-45
2021/11/27 04:20:51;;;;;;;2.67;2.47;;;4.20;99.90;;;;;;5032351;28;20398;-46
2021/11/27 04:23:17;;;;;;;2.83;2.63;;;4.20;99.90;;;;;;5032576;28;20028;-50
2021/11/27 04:25:43;;;;;;;3.22;2.92;;;4.30;99.90;;;;;;5032554;28;20018;-42
2021/11/27 04:28:10;;;;;;;4.88;2.45;;;4.20;99.90;;;;;;5032415;28;20021;-47
2021/11/27 04:30:37;;;;;;;2.55;2.35;;;4.30;99.90;;;;;;5032518;28;20553;-46
2021/11/27 04:33:03;;;;;;;2.97;2.70;;;4.30;99.90;;;;;;5032515;28;20116;-47
2021/11/27 04:35:30;;;;;;;2.60;2.40;;;4.30;99.90;;;;;;5032063;28;20453;-47
2021/11/27 04:37:56;;;;;;;3.08;2.78;;;4.30;99.90;;;;;;5032939;28;20083;-45
2021/11/27 04:40:23;;;;;;;3.20;2.67;;;4.30;99.90;;;;;;5033031;28;20025;-46
2021/11/27 04:42:49;;;;;;;2.28;2.08;;;4.40;99.90;;;;;;5032353;28;20524;-47
2021/11/27 04:45:15;;;;;;;2.33;2.22;;;4.40;99.90;;;;;;5032330;28;20513;-44
2021/11/27 04:47:41;;;;;;;2.47;2.28;;;4.40;99.90;;;;;;5033284;28;20025;-47
2021/11/27 04:50:09;;;;;;;3.42;2.30;;;4.30;99.90;;;;;;5032582;28;20034;-47
2021/11/27 04:52:35;;;;;;;3.97;3.28;;;4.40;99.90;;;;;;5032233;28;20033;-47
2021/11/27 04:55:00;;;;;;;2.53;2.25;;;4.40;99.90;;;;;;5031883;28;20412;-49
2021/11/27 04:57:26;;;;;;;6.93;2.70;;;4.30;99.90;;;;;;5032337;28;20155;-45
2021/11/27 04:59:51;;;;;;;5.38;2.53;;;4.30;99.90;;;;;;5031606;28;20120;-45
2021/11/27 05:02:17;;;;;;;2.05;1.90;;;4.30;99.90;;;;;;5032004;28;20041;-49
2021/11/27 05:04:43;;;;;;;2.50;2.30;;;4.30;99.90;;;;;;5030573;28;20029;-44
2021/11/27 05:07:08;;;;;;;2.05;1.85;;;4.30;99.90;;;;;;5031878;28;20051;-45
2021/11/27 05:09:34;;;;;;;3.45;2.10;;;4.40;99.90;;;;;;5031610;28;20079;-45
2021/11/27 05:12:00;;;;;;;2.70;2.00;;;4.40;99.90;;;;;;5031885;28;20025;-45
2021/11/27 05:14:25;;;;;;;3.67;2.97;;;4.30;99.90;;;;;;5031683;28;20025;-48
2021/11/27 05:16:51;;;;;;;3.75;2.20;;;4.30;99.90;;;;;;5032046;28;20028;-50
2021/11/27 05:19:16;;;;;;;3.10;2.28;;;4.30;99.90;;;;;;5030705;28;20091;-47
2021/11/27 05:21:42;;;;;;;2.90;1.95;;;4.30;99.90;;;;;;5031812;28;20495;-45
2021/11/27 05:24:07;;;;;;;2.03;1.92;;;4.30;99.90;;;;;;5031572;28;20029;-50
2021/11/27 05:26:34;;;;;;;1.70;1.60;;;4.30;99.90;;;;;;5031659;28;20025;-47
2021/11/27 05:29:00;;;;;;;2.72;2.15;;;4.30;99.90;;;;;;5031683;28;20033;-47
2021/11/27 05:31:26;;;;;;;3.35;2.35;;;4.40;99.90;;;;;;5031268;28;20022;-48
2021/11/27 05:36:35;;;;;;;3.78;2.13;;;4.40;99.90;;;;;;5031769;28;20483;-48
2021/11/27 05:39:01;;;;;;;2.40;2.10;;;4.40;99.90;;;;;;5031442;28;20030;-45
2021/11/27 05:41:27;;;;;;;3.95;1.90;;;4.30;99.90;;;;;;5031183;28;20037;-45
2021/11/27 05:43:53;;;;;;;3.78;2.10;;;4.30;99.90;;;;;;5031410;28;20057;-46
2021/11/27 05:46:20;;;;;;;3.38;2.30;;;4.30;99.90;;;;;;5030090;28;20033;-51
2021/11/27 05:48:45;;;;;;;2.00;1.90;;;4.30;99.90;;;;;;5031462;28;20028;-51
2021/11/27 05:51:12;;;;;;;1.85;1.73;;;4.40;99.90;;;;;;5029859;28;20017;-50
2021/11/27 05:53:37;;;;;;;3.28;1.88;;;4.40;99.90;;;;;;5054115;22;20027;-56
2021/11/27 05:56:03;;;;;;;2.45;2.25;;;4.40;99.90;;;;;;5031391;28;20037;-48
2021/11/27 05:58:29;;;;;;;2.13;2.03;;;4.40;99.90;;;;;;5031646;28;20017;-47
2021/11/27 06:00:55;;;;;;;1.65;1.55;;;4.30;99.90;;;;;;5029920;28;20061;-50
2021/11/27 06:03:20;;;;;;;2.75;2.20;;;4.40;99.90;;;;;;5031271;28;20036;-49
2021/11/27 06:05:46;;;;;;;1.80;1.70;;;4.40;99.90;;;;;;5031343;28;20028;-47
2021/11/27 06:08:11;;;;;;;1.52;1.42;;;4.40;99.90;;;;;;5029912;28;20025;-50
2021/11/27 06:10:37;;;;;;;1.80;1.70;;;4.40;99.90;;;;;;5031024;28;20491;-49
2021/11/27 06:13:03;;;;;;;1.75;1.48;;;4.30;99.90;;;;;;5031311;28;20445;-47
2021/11/27 06:15:29;;;;;;;1.70;1.60;;;4.30;99.90;;;;;;5029981;28;20021;-49
2021/11/27 06:17:55;;;;;;;4.00;1.60;;;4.40;99.90;;;;;;5031179;28;20031;-54
2021/11/27 06:20:21;;;;;;;5.88;2.40;;;4.40;99.90;;;;;;5030810;28;20033;-49
2021/11/27 06:22:47;;;;;;;2.17;1.77;;;4.40;99.90;;;;;;5031144;28;20487;-50
2021/11/27 06:25:13;;;;;;;2.45;2.25;;;4.40;99.90;;;;;;5029746;28;20075;-50
2021/11/27 06:27:39;;;;;;;1.83;1.73;;;4.40;99.90;;;;;;5031177;28;20061;-49
2021/11/27 06:30:06;;;;;;;2.85;2.00;;;4.40;99.90;;;;;;5031086;28;20108;-49
2021/11/27 06:32:32;;;;;;;2.92;1.73;;;4.40;99.90;;;;;;5034883;28;20025;-49
2021/11/27 06:34:58;;;;;;;1.80;1.70;;;4.40;99.90;;;;;;5032894;28;20164;-48
2021/11/27 06:37:24;;;;;;;1.95;1.85;;;4.30;99.90;;;;;;5034642;28;20494;-52
2021/11/27 06:39:50;;;;;;;2.95;2.13;;;4.30;99.90;;;;;;5033012;28;20021;-48
2021/11/27 06:42:17;;;;;;;1.92;1.83;;;4.30;99.90;;;;;;5034632;28;20025;-51
2021/11/27 06:44:47;;;;;;;2.58;1.90;;;4.30;99.90;;;;;;5034381;28;20048;-47
2021/11/27 06:47:18;;;;;;;2.38;2.17;;;4.40;99.90;;;;;;5034422;28;20092;-54
2021/11/27 06:49:45;;;;;;;2.33;2.22;;;4.30;99.90;;;;;;5034458;28;20204;-47
2021/11/27 06:52:11;;;;;;;4.43;2.40;;;4.30;99.90;;;;;;5034458;28;20048;-48
2021/11/27 06:54:37;;;;;;;2.83;2.50;;;4.40;99.90;;;;;;5034124;28;20445;-49
2021/11/27 06:57:03;;;;;;;2.83;2.63;;;4.30;99.90;;;;;;5034459;28;20501;-48
2021/11/27 06:59:28;;;;;;;2.83;2.30;;;4.30;99.90;;;;;;5032726;28;20021;-48
2021/11/27 07:01:54;;;;;;;2.83;2.33;;;4.30;99.90;;;;;;5034284;28;20517;-47
2021/11/27 07:04:20;;;;;;;3.20;2.50;;;4.30;99.90;;;;;;5034157;28;20067;-50
2021/11/27 07:06:46;;;;;;;2.42;2.30;;;4.30;99.90;;;;;;5034244;28;20096;-53
2021/11/27 07:09:12;;;;;;;2.60;2.40;;;4.30;99.90;;;;;;5033765;28;20026;-52
2021/11/27 07:11:37;;;;;;;3.13;2.83;;;4.30;99.90;;;;;;5032789;28;20171;-53
2021/11/27 07:14:03;;;;;;;4.00;2.65;;;4.40;99.90;;;;;;5032540;28;20021;-50
2021/11/27 07:16:29;;;;;;;2.90;2.70;;;4.40;99.90;;;;;;5032846;28;20087;-49
2021/11/27 07:18:55;;;;;;;5.55;3.13;;;4.40;99.90;;;;;;5034041;28;20017;-48
2021/11/27 07:21:20;;;;;;;3.35;3.05;;;4.40;99.90;;;;;;5033528;28;20045;-54
2021/11/27 07:23:46;;;;;;;3.47;3.08;;;4.40;99.90;;;;;;5033956;28;20021;-48
2021/11/27 07:26:11;;;;;;;2.80;2.60;;;4.40;99.90;;;;;;5034031;28;20025;-50
2021/11/27 07:28:37;;;;;;;8.13;3.00;;;4.40;99.90;;;;;;5033904;28;20087;-48
2021/11/27 07:31:03;;;;;;;5.72;3.30;;;4.40;99.90;;;;;;5033410;28;20105;-53
2021/11/27 07:33:28;;;;;;;4.30;3.35;;;4.40;99.90;;;;;;5033614;28;20120;-52
2021/11/27 07:35:54;;;;;;;3.67;2.83;;;4.40;99.90;;;;;;5031937;28;20475;-53
2021/11/27 07:38:20;;;;;;;3.95;3.40;;;4.50;99.90;;;;;;5033328;28;20104;-50
2021/11/27 07:40:46;;;;;;;3.17;2.88;;;4.50;99.90;;;;;;5032980;28;20132;-50
2021/11/27 07:43:11;;;;;;;2.95;2.75;;;4.60;99.90;;;;;;5032232;28;20029;-53
2021/11/27 07:45:37;;;;;;;3.72;3.25;;;4.70;99.90;;;;;;5033406;28;20464;-48
2021/11/27 07:48:03;;;;;;;3.92;3.47;;;4.60;99.90;;;;;;5033361;28;20029;-48
2021/11/27 07:50:30;;;;;;;3.35;3.00;;;4.60;99.90;;;;;;5032974;28;20049;-53
2021/11/27 07:52:55;;;;;;;3.92;3.53;;;4.60;99.90;;;;;;5033238;28;20029;-51
2021/11/27 07:55:21;;;;;;;4.22;3.33;;;4.60;99.90;;;;;;5033227;28;20119;-51
2021/11/27 07:57:47;;;;;;;4.30;3.90;;;4.60;99.90;;;;;;5033317;28;20048;-49
2021/11/27 08:00:13;;;;;;;3.67;3.38;;;4.70;99.90;;;;;;5033217;28;20029;-49
2021/11/27 08:02:39;;;;;;;3.97;3.47;;;4.80;99.90;;;;;;5033963;28;20475;-54
2021/11/27 08:05:05;;;;;;;6.20;3.58;;;4.80;99.90;;;;;;5033707;28;20026;-49
2021/11/27 08:07:32;;;;;;;4.10;3.35;;;4.80;99.90;;;;;;5033464;28;20491;-50
2021/11/27 08:09:58;;;;;;;4.22;3.83;;;4.90;99.90;;;;;;5032893;28;20037;-51
2021/11/27 08:12:24;;;;;;;4.25;3.85;;;4.90;99.90;;;;;;5033039;28;20044;-51
2021/11/27 08:14:50;;;;;;;7.38;3.78;;;4.80;99.90;;;;;;5033019;28;20025;-51
2021/11/27 08:17:16;;;;;;;4.30;3.78;;;4.80;99.90;;;;;;5033190;28;20036;-51
2021/11/27 08:19:42;;;;;;;5.70;4.40;;;4.80;99.90;;;;;;5032690;28;20025;-53
2021/11/27 08:22:07;;;;;;;4.07;3.67;;;4.60;99.90;;;;;;5031403;28;20013;-53
2021/11/27 08:24:33;;;;;;;4.35;3.72;;;4.50;99.90;;;;;;5031524;28;20471;-50
2021/11/27 08:26:58;;;;;;;4.60;4.20;;;4.60;99.90;;;;;;5031584;28;20447;-52
2021/11/27 08:29:24;;;;;;;5.75;4.00;;;4.60;99.90;;;;;;5031202;28;20021;-54
2021/11/27 08:31:50;;;;;;;4.40;4.00;;;4.60;99.90;;;;;;5032842;28;20572;-56
2021/11/27 08:34:16;;;;;;;6.60;3.80;;;4.60;99.90;;;;;;5032637;28;20116;-51
2021/11/27 08:36:41;;;;;;;3.72;3.25;;;4.60;99.90;;;;;;5030741;28;20040;-51
2021/11/27 08:39:08;;;;;;;4.35;3.38;;;4.60;99.90;;;;;;5032450;28;20479;-47
2021/11/27 08:41:34;;;;;;;3.50;3.20;;;4.60;99.90;;;;;;5032144;28;20379;-51
2021/11/27 08:43:59;;;;;;;3.45;3.15;;;4.60;99.90;;;;;;5023974;28;20451;-48
2021/11/27 08:46:25;;;;;;;3.70;3.13;;;4.70;99.90;;;;;;5011369;28;20103;-49
2021/11/27 08:48:51;;;;;;;2.88;2.65;;;4.60;99.90;;;;;;5012517;28;20037;-53
2021/11/27 08:51:16;;;;;;;3.95;3.15;;;4.60;99.90;;;;;;5011008;28;20025;-46
2021/11/27 08:53:42;;;;;;;5.20;3.42;;;4.70;99.90;;;;;;5010888;28;20042;-48
2021/11/27 08:56:08;;;;;;;3.67;2.85;;;4.70;99.90;;;;;;5012023;28;20034;-47
2021/11/27 08:58:35;;;;;;;6.40;4.53;;;4.80;99.90;;;;;;5012256;28;20088;-50
2021/11/27 09:01:01;;;;;;;3.50;3.30;;;4.80;99.90;;;;;;5010908;28;20399;-49
2021/11/27 09:03:27;;;;;;;4.38;3.15;;;4.80;99.90;;;;;;5012297;28;20018;-47
2021/11/27 09:05:53;;;;;;;3.20;2.80;;;4.80;99.90;;;;;;5012288;28;20093;-50
2021/11/27 09:08:19;;;;;;;5.30;3.47;;;4.80;99.90;;;;;;5012104;28;20022;-53
2021/11/27 09:10:46;;;;;;;4.70;2.88;;;4.70;99.90;;;;;;5012021;28;20026;-48
2021/11/27 09:13:11;;;;;;;44.35;25.55;;;4.70;99.90;;;;;;5012198;28;20034;-49
2021/11/27 09:15:37;;;;;;;14.10;9.82;;;4.70;99.90;;;;;;5012034;28;20067;-49
2021/11/27 09:18:03;;;;;;;3.85;3.40;;;4.70;99.90;;;;;;5010786;28;20037;-48
2021/11/27 09:20:32;;;;;;;3.10;2.80;;;4.80;99.90;;;;;;5010363;28;20101;-52
2021/11/27 09:22:59;;;;;;;3.70;3.40;;;4.80;99.90;;;;;;5012260;28;20022;-48
2021/11/27 09:25:25;;;;;;;5.32;4.38;;;4.90;99.90;;;;;;5012551;28;20029;-48
2021/11/27 09:27:51;;;;;;;3.38;3.08;;;4.80;99.90;;;;;;5012018;28;20488;-53
2021/11/27 09:30:17;;;;;;;4.80;3.13;;;4.80;99.90;;;;;;5012083;28;20113;-53
2021/11/27 09:32:43;;;;;;;3.58;3.28;;;4.80;99.90;;;;;;5012135;28;20113;-52
2021/11/27 09:35:09;;;;;;;4.03;3.33;;;4.80;99.90;;;;;;5011889;28;20153;-48
2021/11/27 09:37:34;;;;;;;4.75;3.50;;;4.90;99.90;;;;;;5012173;28;20446;-51
2021/11/27 09:40:00;;;;;;;3.15;2.95;;;4.90;99.90;;;;;;5011101;28;20034;-49
2021/11/27 09:42:26;;;;;;;3.42;3.17;;;4.90;99.90;;;;;;5010076;28;20104;-51
2021/11/27 09:44:54;;;;;;;3.25;3.05;;;5.00;99.90;;;;;;5010258;28;20028;-47
2021/11/27 09:47:20;;;;;;;3.05;2.75;;;5.00;99.90;;;;;;5010602;28;20464;-48
2021/11/27 09:49:50;;;;;;;2.85;2.65;;;5.10;99.90;;;;;;5010802;28;20026;-48
2021/11/27 09:52:15;;;;;;;3.00;2.80;;;5.00;99.90;;;;;;5011763;28;20092;-47
2021/11/27 09:54:42;;;;;;;2.67;2.45;;;5.20;99.90;;;;;;5011638;28;20034;-48
2021/11/27 09:57:09;;;;;;;9.10;2.45;;;5.20;99.90;;;;;;5012082;28;20022;-49
2021/11/27 09:59:37;;;;;;;3.22;2.97;;;5.30;99.90;;;;;;5011640;28;20106;-48
2021/11/27 10:02:06;;;;;;;2.03;1.85;;;5.30;99.90;;;;;;5011754;28;20380;-51
2021/11/27 10:04:33;;;;;;;2.60;2.35;;;5.40;99.90;;;;;;5011633;28;20097;-47
2021/11/27 10:06:59;;;;;;;2.00;1.90;;;5.40;99.90;;;;;;5015115;28;20480;-50
2021/11/27 10:09:25;;;;;;;1.38;1.33;;;5.50;99.90;;;;;;5015636;28;20148;-46
2021/11/27 10:11:52;;;;;;;2.00;1.80;;;5.50;99.90;;;;;;5015758;28;20109;-48
2021/11/27 10:14:19;;;;;;;1.63;1.52;;;5.50;99.90;;;;;;5015061;28;20033;-49
2021/11/27 10:16:56;;;;;;;1.30;1.20;;;5.50;99.90;;;;;;5015546;28;20059;-49
2021/11/27 10:19:24;;;;;;;1.05;1.05;;;5.60;99.90;;;;;;5015271;28;20152;-48
2021/11/27 10:21:58;;;;;;;1.25;1.25;;;5.70;99.90;;;;;;5015743;28;20068;-50
2021/11/27 10:24:26;;;;;;;2.08;1.25;;;5.80;99.90;;;;;;5015315;28;20116;-52
2021/11/27 10:26:53;;;;;;;1.70;1.60;;;5.90;99.90;;;;;;5014245;28;20506;-52
2021/11/27 10:29:24;;;;;;;1.05;1.00;;;5.90;99.90;;;;;;5014780;28;20029;-49
2021/11/27 10:31:52;;;;;;;1.35;1.27;;;6.00;99.90;;;;;;5013717;28;20029;-47
2021/11/27 10:34:22;;;;;;;3.33;1.20;;;6.10;99.90;;;;;;5015064;28;20061;-48
2021/11/27 10:36:49;;;;;;;1.20;1.20;;;6.10;99.90;;;;;;5014929;28;20130;-46
2021/11/27 10:39:14;;;;;;;3.22;1.15;;;6.10;99.90;;;;;;5015655;28;20034;-52
2021/11/27 10:42:01;;;;;;;1.30;1.20;;;6.20;99.90;;;;;;5014856;28;20391;-51
2021/11/27 10:44:29;;;;;;;1.20;1.13;;;6.10;99.90;;;;;;5018545;28;20112;-46
2021/11/27 10:47:08;;;;;;;1.40;1.30;;;6.20;99.90;;;;;;5030036;28;20489;-49
2021/11/27 10:49:34;;;;;;;0.85;0.85;;;6.20;99.90;;;;;;5029151;28;20429;-51
2021/11/27 10:52:08;;;;;;;1.33;1.20;;;6.10;99.90;;;;;;5022036;28;20021;-52
2021/11/27 10:54:48;;;;;;;0.90;0.90;;;6.10;99.90;;;;;;5034188;28;20104;-51
2021/11/27 10:57:26;;;;;;;1.23;1.13;;;6.10;99.90;;;;;;5020922;28;20109;-49
2021/11/27 10:59:55;;;;;;;1.23;1.00;;;6.00;99.90;;;;;;5013962;28;20018;-52
2021/11/27 11:02:22;;;;;;;1.38;1.38;;;6.00;99.90;;;;;;5019907;28;20400;-51
2021/11/27 11:05:10;;;;;;;1.52;1.42;;;6.10;99.90;;;;;;5034183;28;20497;-52
2021/11/27 11:07:36;;;;;;;6.75;4.13;;;6.10;99.90;;;;;;5034043;28;20030;-49
2021/11/27 11:10:07;;;;;;;2.85;1.67;;;6.20;99.90;;;;;;5029961;28;20101;-46
2021/11/27 11:12:39;;;;;;;2.38;1.42;;;6.20;99.90;;;;;;5019122;28;20018;-51
2021/11/27 11:15:19;;;;;;;3.17;1.40;;;6.10;99.90;;;;;;5022612;28;20029;-50
2021/11/27 11:17:46;;;;;;;25.95;4.07;;;6.20;99.90;;;;;;5025466;28;20101;-54
2021/11/27 11:20:21;;;;;;;1.85;1.30;;;6.10;99.90;;;;;;5025474;28;20395;-50
2021/11/27 11:23:04;;;;;;;1.63;1.52;;;6.00;99.90;;;;;;5016309;28;20026;-50
2021/11/27 11:25:30;;;;;;;2.30;1.70;;;5.90;99.90;;;;;;5019163;28;20034;-49
2021/11/27 11:28:00;;;;;;;3.90;1.80;;;5.80;99.90;;;;;;5017123;28;20109;-50
2021/11/27 11:30:36;;;;;;;1.95;1.73;;;5.80;99.90;;;;;;5022673;28;20032;-55
2021/11/27 11:33:04;;;;;;;2.03;1.92;;;5.80;99.90;;;;;;5032735;28;20082;-52
2021/11/27 11:35:31;;;;;;;2.50;2.03;;;5.80;99.90;;;;;;5019437;28;20033;-46
2021/11/27 11:37:57;;;;;;;1.55;1.45;;;5.80;99.90;;;;;;5027960;28;20548;-47
2021/11/27 11:40:23;;;;;;;1.73;1.63;;;5.80;99.90;;;;;;5013107;28;20116;-44
2021/11/27 11:42:48;;;;;;;4.80;2.13;;;5.80;99.90;;;;;;5014737;28;20075;-43
2021/11/27 11:45:14;;;;;;;2.08;1.88;;;5.80;99.90;;;;;;5031955;28;20394;-45
2021/11/27 11:47:39;;;;;;;1.73;1.63;;;5.80;99.90;;;;;;5032997;28;20029;-49
2021/11/27 11:50:08;;;;;;;2.28;2.05;;;5.80;99.90;;;;;;5032844;28;20021;-48
2021/11/27 11:52:44;;;;;;;1.95;1.85;;;5.80;99.90;;;;;;5021052;28;20395;-49
2021/11/27 11:55:13;;;;;;;3.47;1.50;;;5.80;99.90;;;;;;5041735;23;20132;-42
2021/11/27 11:57:49;;;;;;;1.92;1.83;;;5.90;99.90;;;;;;5033718;28;20081;-48
2021/11/27 12:00:27;;;;;;;2.20;2.10;;;5.80;99.90;;;;;;5023811;28;20116;-45
2021/11/27 12:03:07;;;;;;;1.67;1.58;;;5.90;99.90;;;;;;5025254;28;20103;-44
2021/11/27 12:05:34;;;;;;;1.88;1.67;;;5.80;99.90;;;;;;5012926;28;20553;-44
2021/11/27 12:08:01;;;;;;;3.05;1.95;;;5.90;99.90;;;;;;5012120;28;20127;-44
2021/11/27 12:10:45;;;;;;;4.63;1.98;;;5.90;99.90;;;;;;5031985;28;20051;-44
2021/11/27 12:13:11;;;;;;;1.40;1.30;;;6.00;99.90;;;;;;5032777;28;20118;-43
2021/11/27 12:15:47;;;;;;;2.63;2.20;;;6.00;99.90;;;;;;5032593;28;20068;-44
2021/11/27 12:18:16;;;;;;;2.35;1.90;;;6.10;99.90;;;;;;5033419;28;20372;-58
2021/11/27 12:20:47;;;;;;;3.53;2.03;;;6.10;99.90;;;;;;5032909;28;20526;-44
2021/11/27 12:23:43;;;;;;;2.50;2.30;;;6.10;99.90;;;;;;5032106;28;20555;-43
2021/11/27 12:26:09;;;;;;;3.28;2.40;;;6.00;99.90;;;;;;5033197;28;20040;-43
2021/11/27 12:29:02;;;;;;;4.20;2.53;;;6.00;99.90;;;;;;5032352;28;20018;-43
2021/11/27 12:31:44;;;;;;;2.13;1.92;;;6.00;99.90;;;;;;5031983;28;20075;-42
2021/11/27 12:34:12;;;;;;;2.47;2.28;;;5.90;99.90;;;;;;5031200;28;20075;-43
2021/11/27 12:36:45;;;;;;;2.80;2.60;;;5.80;99.90;;;;;;5032054;28;20041;-42
2021/11/27 12:39:23;;;;;;;3.80;2.35;;;5.80;99.90;;;;;;5029342;28;20093;-43
2021/11/27 12:42:09;;;;;;;2.45;2.25;;;5.90;99.90;;;;;;5030968;28;20049;-43
2021/11/27 12:44:43;;;;;;;2.90;2.53;;;5.90;99.90;;;;;;5032504;28;20037;-47
2021/11/27 12:47:16;;;;;;;2.15;2.05;;;6.10;99.90;;;;;;5032793;28;20076;-40
2021/11/27 12:49:45;;;;;;;6.60;2.55;;;6.10;99.90;;;;;;5032190;28;20024;-42
2021/11/27 12:52:14;;;;;;;4.40;1.85;;;6.20;99.90;;;;;;5032385;28;20068;-43
2021/11/27 12:54:51;;;;;;;5.90;2.40;;;6.20;99.90;;;;;;5032232;28;20037;-40
2021/11/27 12:57:39;;;;;;;1.88;1.77;;;6.20;99.90;;;;;;5031894;28;20033;-42
2021/11/27 13:00:16;;;;;;;1.98;1.77;;;6.10;99.90;;;;;;5030897;28;20394;-41